createdAt,value
2023-03-17T00:04:29.220Z,95813.19
2023-03-17T00:19:33.721Z,95813.72
2023-03-17T00:34:35.088Z,95791.13
2023-03-17T00:49:36.461Z,95770.31
2023-03-17T01:04:37.795Z,95758.88
2023-03-17T01:19:40.067Z,95744.63
2023-03-17T01:34:41.520Z,95728.44
2023-03-17T01:49:43.034Z,95723.56
2023-03-17T02:04:44.404Z,95713.75
2023-03-17T02:19:45.867Z,95719.31
2023-03-17T02:34:47.244Z,95709.13
2023-03-17T02:49:48.656Z,95680.75
2023-03-17T03:04:50.415Z,95676.25
2023-03-17T03:19:51.834Z,95674.09
2023-03-17T03:34:53.317Z,95665.94
2023-03-17T03:49:54.789Z,95650.59
2023-03-17T04:04:56.214Z,95656.81
2023-03-17T04:19:58.193Z,95658.41
2023-03-17T04:34:59.629Z,95646.69
2023-03-17T04:50:01.344Z,95646.47
2023-03-17T05:05:02.808Z,95631.47
2023-03-17T05:20:04.429Z,95623.13
2023-03-17T05:35:06.069Z,95615.31
2023-03-17T05:50:08.025Z,95616.56
2023-03-17T06:05:09.663Z,95631.28
2023-03-17T06:20:11.752Z,95630.47
2023-03-17T06:35:13.346Z,95634.72
2023-03-17T06:50:14.772Z,95651.47
2023-03-17T07:05:16.158Z,95657.84
2023-03-17T07:20:17.931Z,95638.75
2023-03-17T07:35:19.557Z,95639.88
2023-03-17T07:50:20.960Z,95636.19
2023-03-17T08:05:22.398Z,95636.53
2023-03-17T08:20:23.907Z,95625.94
2023-03-17T08:35:25.477Z,95614.59
2023-03-17T08:50:27.478Z,95614.94
2023-03-17T09:05:29.313Z,95622.47
2023-03-17T09:20:31.566Z,95615.41
2023-03-17T09:35:33.963Z,95613.22
2023-03-17T09:50:35.361Z,95605.97
2023-03-17T10:05:36.877Z,95602.59
2023-03-17T10:20:38.367Z,95596.34
2023-03-17T10:35:40.563Z,95582.66
2023-03-17T10:50:42.113Z,95585.88
2023-03-17T11:05:44.060Z,95567.06
2023-03-17T11:20:46.547Z,95568.59
2023-03-17T11:35:48.336Z,95556.34
2023-03-17T11:50:49.811Z,95524.34
2023-03-17T12:05:51.221Z,95516.69
2023-03-17T12:20:52.632Z,95500.69
2023-03-17T12:35:54.094Z,95493.22
2023-03-17T12:50:55.843Z,95491.44
2023-03-17T13:05:57.360Z,95471.28
2023-03-17T13:21:02.140Z,95464.53
2023-03-17T13:36:03.882Z,95453.78
2023-03-17T13:51:05.314Z,95440.00
2023-03-17T14:06:07.966Z,95419.63
2023-03-17T14:21:11.633Z,95413.28
2023-03-17T14:36:14.596Z,95390.53
2023-03-17T14:51:16.477Z,95386.81
2023-03-17T15:06:17.923Z,95377.44
2023-03-17T15:21:19.316Z,95371.19
2023-03-17T15:36:31.899Z,95378.69
2023-03-17T15:51:34.000Z,95365.88
2023-03-17T16:06:35.621Z,95367.25
2023-03-17T16:21:37.447Z,95358.63
2023-03-17T16:36:40.257Z,95362.19
2023-03-17T16:51:41.626Z,95361.00
2023-03-17T17:06:43.084Z,95364.16
2023-03-17T17:21:44.472Z,95367.50
2023-03-17T17:36:45.884Z,95376.28
2023-03-17T17:51:47.322Z,95395.47
2023-03-17T18:06:48.690Z,95417.50
2023-03-17T18:21:50.149Z,95417.41
2023-03-17T18:36:51.962Z,95432.78
2023-03-17T18:51:53.343Z,95441.25
2023-03-17T19:06:55.914Z,95459.53
2023-03-17T19:21:57.284Z,95460.81
2023-03-17T19:36:58.784Z,95461.31
2023-03-17T19:52:00.434Z,95463.94
2023-03-17T20:07:01.819Z,95458.03
2023-03-17T20:22:03.236Z,95477.94
2023-03-17T20:37:04.626Z,95475.00
2023-03-17T20:52:06.357Z,95481.94
2023-03-17T21:07:08.229Z,95515.16
2023-03-17T21:22:09.632Z,95509.66
2023-03-17T21:37:11.137Z,95506.78
2023-03-17T21:52:14.811Z,95508.28
2023-03-17T22:07:19.470Z,95508.69
2023-03-17T22:22:21.093Z,95514.28
2023-03-17T22:37:22.561Z,95536.53
2023-03-17T22:52:24.007Z,95540.47
2023-03-17T23:07:25.418Z,95555.72
2023-03-17T23:22:27.214Z,95576.34
2023-03-17T23:37:28.893Z,95587.38
2023-03-17T23:52:30.722Z,95585.56
